sensor_id;sensor_type;location;lat;lon;timestamp;temperature;humidity
21246;DHT22;10781;50.928;4.440;2023-04-25T00:00:52;11.50;99.90
21246;DHT22;10781;50.928;4.440;2023-04-25T00:03:18;11.50;99.90
21246;DHT22;10781;50.928;4.440;2023-04-25T00:05:44;11.50;99.90
21246;DHT22;10781;50.928;4.440;2023-04-25T00:08:11;11.40;99.90
21246;DHT22;10781;50.928;4.440;2023-04-25T00:10:36;11.40;99.90
21246;DHT22;10781;50.928;4.440;2023-04-25T00:13:02;11.30;99.90
21246;DHT22;10781;50.928;4.440;2023-04-25T00:15:28;11.30;99.90
21246;DHT22;10781;50.928;4.440;2023-04-25T00:17:56;11.30;99.90
21246;DHT22;10781;50.928;4.440;2023-04-25T00:20:22;11.30;99.90
21246;DHT22;10781;50.928;4.440;2023-04-25T00:22:49;11.30;99.90
21246;DHT22;10781;50.928;4.440;2023-04-25T00:25:14;11.30;99.90
21246;DHT22;10781;50.928;4.440;2023-04-25T00:27:40;11.30;99.90
21246;DHT22;10781;50.928;4.440;2023-04-25T00:30:07;11.20;99.90
21246;DHT22;10781;50.928;4.440;2023-04-25T00:32:33;11.30;99.90
21246;DHT22;10781;50.928;4.440;2023-04-25T00:34:59;11.40;99.90
21246;DHT22;10781;50.928;4.440;2023-04-25T00:37:25;11.30;99.90
21246;DHT22;10781;50.928;4.440;2023-04-25T00:39:51;11.30;99.90
21246;DHT22;10781;50.928;4.440;2023-04-25T00:42:19;11.30;99.90
21246;DHT22;10781;50.928;4.440;2023-04-25T00:44:45;11.20;99.90
21246;DHT22;10781;50.928;4.440;2023-04-25T00:47:11;11.30;99.90
21246;DHT22;10781;50.928;4.440;2023-04-25T00:49:37;11.30;99.90
21246;DHT22;10781;50.928;4.440;2023-04-25T00:52:02;11.30;99.90
21246;DHT22;10781;50.928;4.440;2023-04-25T00:54:28;11.30;99.90
21246;DHT22;10781;50.928;4.440;2023-04-25T00:56:55;11.30;99.90
21246;DHT22;10781;50.928;4.440;2023-04-25T00:59:21;11.40;99.90
21246;DHT22;10781;50.928;4.440;2023-04-25T01:01:47;11.50;99.90
21246;DHT22;10781;50.928;4.440;2023-04-25T01:04:13;11.50;99.90
21246;DHT22;10781;50.928;4.440;2023-04-25T01:06:39;11.40;99.90
21246;DHT22;10781;50.928;4.440;2023-04-25T01:09:05;11.30;99.90
21246;DHT22;10781;50.928;4.440;2023-04-25T01:11:31;11.20;99.90
21246;DHT22;10781;50.928;4.440;2023-04-25T01:13:56;11.30;99.90
21246;DHT22;10781;50.928;4.440;2023-04-25T01:16:22;11.20;99.90
21246;DHT22;10781;50.928;4.440;2023-04-25T01:18:50;11.00;99.90
21246;DHT22;10781;50.928;4.440;2023-04-25T01:21:17;11.00;99.90
21246;DHT22;10781;50.928;4.440;2023-04-25T01:23:43;11.10;99.90
21246;DHT22;10781;50.928;4.440;2023-04-25T01:26:09;11.10;99.90
21246;DHT22;10781;50.928;4.440;2023-04-25T01:28:36;11.10;99.90
21246;DHT22;10781;50.928;4.440;2023-04-25T01:31:02;11.00;99.90
21246;DHT22;10781;50.928;4.440;2023-04-25T01:33:28;10.80;99.90
21246;DHT22;10781;50.928;4.440;2023-04-25T01:35:54;10.60;99.90
21246;DHT22;10781;50.928;4.440;2023-04-25T01:38:20;10.60;99.90
21246;DHT22;10781;50.928;4.440;2023-04-25T01:40:46;10.50;99.90
21246;DHT22;10781;50.928;4.440;2023-04-25T01:43:15;10.50;99.90
21246;DHT22;10781;50.928;4.440;2023-04-25T01:45:42;10.50;99.90
21246;DHT22;10781;50.928;4.440;2023-04-25T01:48:12;10.40;99.90
21246;DHT22;10781;50.928;4.440;2023-04-25T01:50:39;10.40;99.90
21246;DHT22;10781;50.928;4.440;2023-04-25T01:53:06;10.40;99.90
21246;DHT22;10781;50.928;4.440;2023-04-25T01:55:32;10.40;99.90
21246;DHT22;10781;50.928;4.440;2023-04-25T01:57:57;10.40;99.90
21246;DHT22;10781;50.928;4.440;2023-04-25T02:00:24;10.40;99.90
21246;DHT22;10781;50.928;4.440;2023-04-25T02:02:50;10.40;99.90
21246;DHT22;10781;50.928;4.440;2023-04-25T02:05:17;10.40;99.90
21246;DHT22;10781;50.928;4.440;2023-04-25T02:07:43;10.30;99.90
21246;DHT22;10781;50.928;4.440;2023-04-25T02:10:09;10.40;99.90
21246;DHT22;10781;50.928;4.440;2023-04-25T02:12:35;10.30;99.90
21246;DHT22;10781;50.928;4.440;2023-04-25T02:15:01;10.30;99.90
21246;DHT22;10781;50.928;4.440;2023-04-25T02:17:27;10.30;99.90
21246;DHT22;10781;50.928;4.440;2023-04-25T02:19:52;10.20;99.90
21246;DHT22;10781;50.928;4.440;2023-04-25T02:22:18;10.20;99.90
21246;DHT22;10781;50.928;4.440;2023-04-25T02:24:44;10.20;99.90
21246;DHT22;10781;50.928;4.440;2023-04-25T02:27:09;10.20;99.90
21246;DHT22;10781;50.928;4.440;2023-04-25T02:29:35;10.20;99.90
21246;DHT22;10781;50.928;4.440;2023-04-25T02:32:01;10.20;99.90
21246;DHT22;10781;50.928;4.440;2023-04-25T02:34:27;10.30;99.90
21246;DHT22;10781;50.928;4.440;2023-04-25T02:36:52;10.30;99.90
21246;DHT22;10781;50.928;4.440;2023-04-25T02:39:18;10.20;99.90
21246;DHT22;10781;50.928;4.440;2023-04-25T02:41:44;10.20;99.90
21246;DHT22;10781;50.928;4.440;2023-04-25T02:44:09;10.00;99.90
21246;DHT22;10781;50.928;4.440;2023-04-25T02:46:35;9.90;99.90
21246;DHT22;10781;50.928;4.440;2023-04-25T02:49:01;10.00;99.90
21246;DHT22;10781;50.928;4.440;2023-04-25T02:51:26;10.00;99.90
21246;DHT22;10781;50.928;4.440;2023-04-25T02:53:52;10.00;99.90
21246;DHT22;10781;50.928;4.440;2023-04-25T02:56:18;10.00;99.90
21246;DHT22;10781;50.928;4.440;2023-04-25T02:58:43;10.00;99.90
21246;DHT22;10781;50.928;4.440;2023-04-25T03:01:09;9.90;99.90
21246;DHT22;10781;50.928;4.440;2023-04-25T03:03:35;9.80;99.90
21246;DHT22;10781;50.928;4.440;2023-04-25T03:06:01;9.90;99.90
21246;DHT22;10781;50.928;4.440;2023-04-25T03:08:26;10.00;99.90
21246;DHT22;10781;50.928;4.440;2023-04-25T03:10:58;9.90;99.90
21246;DHT22;10781;50.928;4.440;2023-04-25T03:13:24;9.80;99.90
21246;DHT22;10781;50.928;4.440;2023-04-25T03:15:49;9.80;99.90
21246;DHT22;10781;50.928;4.440;2023-04-25T03:18:15;9.80;99.90
21246;DHT22;10781;50.928;4.440;2023-04-25T03:20:41;9.80;99.90
21246;DHT22;10781;50.928;4.440;2023-04-25T03:23:07;9.80;99.90
21246;DHT22;10781;50.928;4.440;2023-04-25T03:25:33;9.50;99.90
21246;DHT22;10781;50.928;4.440;2023-04-25T03:27:58;9.50;99.90
21246;DHT22;10781;50.928;4.440;2023-04-25T03:30:24;9.50;99.90
21246;DHT22;10781;50.928;4.440;2023-04-25T03:32:50;9.40;99.90
21246;DHT22;10781;50.928;4.440;2023-04-25T03:35:15;9.40;99.90
21246;DHT22;10781;50.928;4.440;2023-04-25T03:37:41;9.10;99.90
21246;DHT22;10781;50.928;4.440;2023-04-25T03:40:11;8.90;99.90
21246;DHT22;10781;50.928;4.440;2023-04-25T03:42:36;8.60;99.90
21246;DHT22;10781;50.928;4.440;2023-04-25T03:45:02;8.30;99.90
21246;DHT22;10781;50.928;4.440;2023-04-25T03:47:28;8.10;99.90
21246;DHT22;10781;50.928;4.440;2023-04-25T03:49:53;7.90;99.90
21246;DHT22;10781;50.928;4.440;2023-04-25T03:52:19;7.90;99.90
21246;DHT22;10781;50.928;4.440;2023-04-25T03:54:45;7.90;99.90
21246;DHT22;10781;50.928;4.440;2023-04-25T03:57:10;7.90;99.90
21246;DHT22;10781;50.928;4.440;2023-04-25T03:59:36;7.90;99.90
21246;DHT22;10781;50.928;4.440;2023-04-25T04:02:02;7.90;99.90
21246;DHT22;10781;50.928;4.440;2023-04-25T04:04:27;8.10;99.90
21246;DHT22;10781;50.928;4.440;2023-04-25T04:06:53;8.20;99.90
21246;DHT22;10781;50.928;4.440;2023-04-25T04:09:19;8.30;99.90
21246;DHT22;10781;50.928;4.440;2023-04-25T04:11:45;8.40;99.90
21246;DHT22;10781;50.928;4.440;2023-04-25T04:14:11;8.80;99.90
21246;DHT22;10781;50.928;4.440;2023-04-25T04:16:37;9.10;99.90
21246;DHT22;10781;50.928;4.440;2023-04-25T04:19:03;9.30;99.90
21246;DHT22;10781;50.928;4.440;2023-04-25T04:21:28;9.60;99.90
21246;DHT22;10781;50.928;4.440;2023-04-25T04:23:54;9.70;99.90
21246;DHT22;10781;50.928;4.440;2023-04-25T04:26:20;9.90;99.90
21246;DHT22;10781;50.928;4.440;2023-04-25T04:28:51;10.00;99.90
21246;DHT22;10781;50.928;4.440;2023-04-25T04:31:22;10.10;99.90
21246;DHT22;10781;50.928;4.440;2023-04-25T04:33:49;10.10;99.90
21246;DHT22;10781;50.928;4.440;2023-04-25T04:36:15;10.10;99.90
21246;DHT22;10781;50.928;4.440;2023-04-25T04:38:41;10.10;99.90
21246;DHT22;10781;50.928;4.440;2023-04-25T04:41:08;10.10;99.90
21246;DHT22;10781;50.928;4.440;2023-04-25T04:43:33;10.10;99.90
21246;DHT22;10781;50.928;4.440;2023-04-25T04:46:02;9.90;99.90
21246;DHT22;10781;50.928;4.440;2023-04-25T04:48:30;9.70;99.90
21246;DHT22;10781;50.928;4.440;2023-04-25T04:50:58;9.50;99.90
21246;DHT22;10781;50.928;4.440;2023-04-25T04:53:24;9.40;99.90
21246;DHT22;10781;50.928;4.440;2023-04-25T04:55:49;9.40;99.90
21246;DHT22;10781;50.928;4.440;2023-04-25T04:58:15;9.40;99.90
21246;DHT22;10781;50.928;4.440;2023-04-25T05:00:41;9.10;99.90
21246;DHT22;10781;50.928;4.440;2023-04-25T05:03:06;9.00;99.90
21246;DHT22;10781;50.928;4.440;2023-04-25T05:05:32;8.90;99.90
21246;DHT22;10781;50.928;4.440;2023-04-25T05:07:58;8.80;99.90
21246;DHT22;10781;50.928;4.440;2023-04-25T05:10:25;8.80;99.90
21246;DHT22;10781;50.928;4.440;2023-04-25T05:12:50;8.90;99.90
21246;DHT22;10781;50.928;4.440;2023-04-25T05:15:16;9.20;99.90
21246;DHT22;10781;50.928;4.440;2023-04-25T05:17:42;9.30;99.90
21246;DHT22;10781;50.928;4.440;2023-04-25T05:20:08;9.30;99.90
21246;DHT22;10781;50.928;4.440;2023-04-25T05:22:35;9.40;99.90
21246;DHT22;10781;50.928;4.440;2023-04-25T05:25:01;9.50;99.90
21246;DHT22;10781;50.928;4.440;2023-04-25T05:27:26;9.50;99.90
21246;DHT22;10781;50.928;4.440;2023-04-25T05:29:52;9.60;99.90
21246;DHT22;10781;50.928;4.440;2023-04-25T05:32:18;9.60;99.90
21246;DHT22;10781;50.928;4.440;2023-04-25T05:34:43;9.80;99.90
21246;DHT22;10781;50.928;4.440;2023-04-25T05:37:09;9.80;99.90
21246;DHT22;10781;50.928;4.440;2023-04-25T05:39:35;9.90;99.90
21246;DHT22;10781;50.928;4.440;2023-04-25T05:42:01;9.90;99.90
21246;DHT22;10781;50.928;4.440;2023-04-25T05:44:28;9.90;99.90
21246;DHT22;10781;50.928;4.440;2023-04-25T05:46:53;9.90;99.90
21246;DHT22;10781;50.928;4.440;2023-04-25T05:49:19;9.90;99.90
21246;DHT22;10781;50.928;4.440;2023-04-25T05:51:45;9.90;99.90
21246;DHT22;10781;50.928;4.440;2023-04-25T05:54:10;9.90;99.90
21246;DHT22;10781;50.928;4.440;2023-04-25T05:56:36;9.80;99.90
21246;DHT22;10781;50.928;4.440;2023-04-25T05:59:02;9.80;99.90
21246;DHT22;10781;50.928;4.440;2023-04-25T06:01:28;9.70;99.90
21246;DHT22;10781;50.928;4.440;2023-04-25T06:03:54;9.80;99.90
21246;DHT22;10781;50.928;4.440;2023-04-25T06:06:19;9.70;99.90
21246;DHT22;10781;50.928;4.440;2023-04-25T06:08:45;9.70;99.90
21246;DHT22;10781;50.928;4.440;2023-04-25T06:11:11;9.70;99.90
21246;DHT22;10781;50.928;4.440;2023-04-25T06:13:37;9.70;99.90
21246;DHT22;10781;50.928;4.440;2023-04-25T06:16:02;9.70;99.90
21246;DHT22;10781;50.928;4.440;2023-04-25T06:18:28;9.70;99.90
21246;DHT22;10781;50.928;4.440;2023-04-25T06:20:54;9.70;99.90
21246;DHT22;10781;50.928;4.440;2023-04-25T06:23:19;9.70;99.90
21246;DHT22;10781;50.928;4.440;2023-04-25T06:25:45;9.90;99.90
21246;DHT22;10781;50.928;4.440;2023-04-25T06:28:11;9.80;99.90
21246;DHT22;10781;50.928;4.440;2023-04-25T06:30:37;9.80;99.90
21246;DHT22;10781;50.928;4.440;2023-04-25T06:33:02;9.70;99.90
21246;DHT22;10781;50.928;4.440;2023-04-25T06:35:28;9.70;99.90
21246;DHT22;10781;50.928;4.440;2023-04-25T06:37:53;9.60;99.90
21246;DHT22;10781;50.928;4.440;2023-04-25T06:40:19;9.60;99.90
21246;DHT22;10781;50.928;4.440;2023-04-25T06:42:45;9.70;99.90
21246;DHT22;10781;50.928;4.440;2023-04-25T06:45:11;9.60;99.90
21246;DHT22;10781;50.928;4.440;2023-04-25T06:47:36;9.60;99.90
21246;DHT22;10781;50.928;4.440;2023-04-25T06:50:02;9.70;99.90
21246;DHT22;10781;50.928;4.440;2023-04-25T06:52:28;10.00;99.90
21246;DHT22;10781;50.928;4.440;2023-04-25T06:54:53;10.00;99.90
21246;DHT22;10781;50.928;4.440;2023-04-25T06:57:19;9.90;99.90
21246;DHT22;10781;50.928;4.440;2023-04-25T06:59:45;10.00;99.90
21246;DHT22;10781;50.928;4.440;2023-04-25T07:02:10;10.20;99.90
21246;DHT22;10781;50.928;4.440;2023-04-25T07:04:36;10.30;99.90
21246;DHT22;10781;50.928;4.440;2023-04-25T07:07:02;10.50;99.90
21246;DHT22;10781;50.928;4.440;2023-04-25T07:09:29;10.60;99.90
21246;DHT22;10781;50.928;4.440;2023-04-25T07:11:55;10.70;99.90
21246;DHT22;10781;50.928;4.440;2023-04-25T07:14:21;10.80;99.90
21246;DHT22;10781;50.928;4.440;2023-04-25T07:16:47;11.00;99.90
21246;DHT22;10781;50.928;4.440;2023-04-25T07:19:13;11.00;99.90
21246;DHT22;10781;50.928;4.440;2023-04-25T07:21:38;11.10;99.90
21246;DHT22;10781;50.928;4.440;2023-04-25T07:24:05;11.30;99.90
21246;DHT22;10781;50.928;4.440;2023-04-25T07:26:30;11.40;99.90
21246;DHT22;10781;50.928;4.440;2023-04-25T07:28:56;11.50;99.90
21246;DHT22;10781;50.928;4.440;2023-04-25T07:31:22;11.40;99.90
21246;DHT22;10781;50.928;4.440;2023-04-25T07:33:48;11.40;99.90
21246;DHT22;10781;50.928;4.440;2023-04-25T07:36:13;11.20;99.90
21246;DHT22;10781;50.928;4.440;2023-04-25T07:38:40;11.00;99.90
21246;DHT22;10781;50.928;4.440;2023-04-25T07:41:06;11.20;99.90
21246;DHT22;10781;50.928;4.440;2023-04-25T07:43:32;11.50;99.90
21246;DHT22;10781;50.928;4.440;2023-04-25T07:45:58;11.80;99.90
21246;DHT22;10781;50.928;4.440;2023-04-25T07:48:23;12.00;99.90
21246;DHT22;10781;50.928;4.440;2023-04-25T07:50:49;12.10;99.90
21246;DHT22;10781;50.928;4.440;2023-04-25T07:53:15;11.90;99.90
21246;DHT22;10781;50.928;4.440;2023-04-25T07:55:41;11.80;99.90
21246;DHT22;10781;50.928;4.440;2023-04-25T07:58:07;11.90;99.90
21246;DHT22;10781;50.928;4.440;2023-04-25T08:00:33;11.90;99.90
21246;DHT22;10781;50.928;4.440;2023-04-25T08:02:58;12.00;99.90
21246;DHT22;10781;50.928;4.440;2023-04-25T08:05:24;11.90;99.90
21246;DHT22;10781;50.928;4.440;2023-04-25T08:07:50;11.90;99.90
21246;DHT22;10781;50.928;4.440;2023-04-25T08:10:16;12.20;99.90
21246;DHT22;10781;50.928;4.440;2023-04-25T08:12:41;12.50;99.90
21246;DHT22;10781;50.928;4.440;2023-04-25T08:15:07;12.90;99.90
21246;DHT22;10781;50.928;4.440;2023-04-25T08:17:33;13.10;99.90
21246;DHT22;10781;50.928;4.440;2023-04-25T08:19:59;13.30;99.90
21246;DHT22;10781;50.928;4.440;2023-04-25T08:22:25;13.40;99.90
21246;DHT22;10781;50.928;4.440;2023-04-25T08:24:50;13.60;99.90
21246;DHT22;10781;50.928;4.440;2023-04-25T08:27:19;13.60;99.90
21246;DHT22;10781;50.928;4.440;2023-04-25T08:29:46;13.40;99.90
21246;DHT22;10781;50.928;4.440;2023-04-25T08:32:12;13.10;99.90
21246;DHT22;10781;50.928;4.440;2023-04-25T08:34:37;13.00;99.90
21246;DHT22;10781;50.928;4.440;2023-04-25T08:37:07;12.90;99.90
21246;DHT22;10781;50.928;4.440;2023-04-25T08:39:38;15.30;99.90
21246;DHT22;10781;50.928;4.440;2023-04-25T08:42:06;15.40;99.90
21246;DHT22;10781;50.928;4.440;2023-04-25T08:44:34;14.50;99.90
21246;DHT22;10781;50.928;4.440;2023-04-25T08:47:03;14.30;99.90
21246;DHT22;10781;50.928;4.440;2023-04-25T08:49:32;15.90;99.90
21246;DHT22;10781;50.928;4.440;2023-04-25T08:52:00;18.00;99.90
21246;DHT22;10781;50.928;4.440;2023-04-25T08:54:27;19.90;99.90
21246;DHT22;10781;50.928;4.440;2023-04-25T08:56:55;21.80;99.90
21246;DHT22;10781;50.928;4.440;2023-04-25T08:59:23;23.50;97.20
21246;DHT22;10781;50.928;4.440;2023-04-25T09:01:49;24.90;86.20
21246;DHT22;10781;50.928;4.440;2023-04-25T09:04:15;23.90;73.50
21246;DHT22;10781;50.928;4.440;2023-04-25T09:06:41;21.10;75.70
21246;DHT22;10781;50.928;4.440;2023-04-25T09:09:08;18.50;85.10
21246;DHT22;10781;50.928;4.440;2023-04-25T09:11:37;16.90;91.60
21246;DHT22;10781;50.928;4.440;2023-04-25T09:14:17;15.50;96.90
21246;DHT22;10781;50.928;4.440;2023-04-25T09:19:32;13.70;99.90
21246;DHT22;10781;50.928;4.440;2023-04-25T09:22:02;13.30;99.90
21246;DHT22;10781;50.928;4.440;2023-04-25T09:24:38;13.20;99.90
21246;DHT22;10781;50.928;4.440;2023-04-25T09:27:07;13.20;99.90
21246;DHT22;10781;50.928;4.440;2023-04-25T09:29:38;13.40;99.90
21246;DHT22;10781;50.928;4.440;2023-04-25T09:32:21;13.10;99.90
21246;DHT22;10781;50.928;4.440;2023-04-25T09:34:52;13.10;99.90
21246;DHT22;10781;50.928;4.440;2023-04-25T09:37:19;14.60;99.90
21246;DHT22;10781;50.928;4.440;2023-04-25T09:39:46;16.50;99.90
21246;DHT22;10781;50.928;4.440;2023-04-25T09:42:14;17.30;99.90
21246;DHT22;10781;50.928;4.440;2023-04-25T09:44:46;16.80;99.90
21246;DHT22;10781;50.928;4.440;2023-04-25T09:47:15;16.90;99.90
21246;DHT22;10781;50.928;4.440;2023-04-25T09:49:43;16.60;99.90
21246;DHT22;10781;50.928;4.440;2023-04-25T09:52:14;16.70;99.90
21246;DHT22;10781;50.928;4.440;2023-04-25T09:54:40;16.60;99.90
21246;DHT22;10781;50.928;4.440;2023-04-25T09:57:20;17.40;99.90
21246;DHT22;10781;50.928;4.440;2023-04-25T09:59:51;19.70;99.90
21246;DHT22;10781;50.928;4.440;2023-04-25T10:02:23;21.70;93.80
21246;DHT22;10781;50.928;4.440;2023-04-25T10:04:51;21.60;87.50
21246;DHT22;10781;50.928;4.440;2023-04-25T10:07:19;20.70;88.50
21246;DHT22;10781;50.928;4.440;2023-04-25T10:09:52;21.80;86.60
21246;DHT22;10781;50.928;4.440;2023-04-25T10:12:20;22.50;80.40
21246;DHT22;10781;50.928;4.440;2023-04-25T10:14:47;23.20;77.70
21246;DHT22;10781;50.928;4.440;2023-04-25T10:17:14;23.50;75.30
21246;DHT22;10781;50.928;4.440;2023-04-25T10:19:40;21.80;75.30
21246;DHT22;10781;50.928;4.440;2023-04-25T10:22:13;21.70;75.70
21246;DHT22;10781;50.928;4.440;2023-04-25T10:24:41;22.90;70.70
21246;DHT22;10781;50.928;4.440;2023-04-25T10:27:07;23.80;68.80
21246;DHT22;10781;50.928;4.440;2023-04-25T10:29:33;22.40;68.40
21246;DHT22;10781;50.928;4.440;2023-04-25T10:32:00;23.00;66.60
21246;DHT22;10781;50.928;4.440;2023-04-25T10:34:43;22.30;67.70
21246;DHT22;10781;50.928;4.440;2023-04-25T10:37:12;21.10;67.50
21246;DHT22;10781;50.928;4.440;2023-04-25T10:39:40;20.40;71.80
21246;DHT22;10781;50.928;4.440;2023-04-25T10:42:06;19.40;72.90
21246;DHT22;10781;50.928;4.440;2023-04-25T10:44:33;18.30;75.40
21246;DHT22;10781;50.928;4.440;2023-04-25T10:47:01;17.40;78.70
21246;DHT22;10781;50.928;4.440;2023-04-25T10:49:30;16.80;80.20
21246;DHT22;10781;50.928;4.440;2023-04-25T10:54:57;15.00;86.60
21246;DHT22;10781;50.928;4.440;2023-04-25T10:59:59;14.30;95.30
21246;DHT22;10781;50.928;4.440;2023-04-25T11:02:28;13.60;98.40
21246;DHT22;10781;50.928;4.440;2023-04-25T11:04:54;13.20;99.90
21246;DHT22;10781;50.928;4.440;2023-04-25T11:07:39;13.30;99.90
21246;DHT22;10781;50.928;4.440;2023-04-25T11:10:09;13.00;99.90
21246;DHT22;10781;50.928;4.440;2023-04-25T11:12:35;13.20;99.90
21246;DHT22;10781;50.928;4.440;2023-04-25T11:15:05;13.10;99.90
21246;DHT22;10781;50.928;4.440;2023-04-25T11:17:32;15.20;99.90
21246;DHT22;10781;50.928;4.440;2023-04-25T11:19:58;17.00;99.90
21246;DHT22;10781;50.928;4.440;2023-04-25T11:22:24;18.10;98.00
21246;DHT22;10781;50.928;4.440;2023-04-25T11:24:51;18.60;94.80
21246;DHT22;10781;50.928;4.440;2023-04-25T11:27:18;18.90;93.90
21246;DHT22;10781;50.928;4.440;2023-04-25T11:29:44;18.60;92.30
21246;DHT22;10781;50.928;4.440;2023-04-25T11:32:09;19.10;93.70
21246;DHT22;10781;50.928;4.440;2023-04-25T11:34:35;19.50;92.30
21246;DHT22;10781;50.928;4.440;2023-04-25T11:37:02;19.30;91.40
21246;DHT22;10781;50.928;4.440;2023-04-25T11:39:28;19.00;90.80
21246;DHT22;10781;50.928;4.440;2023-04-25T11:41:55;18.50;91.80
21246;DHT22;10781;50.928;4.440;2023-04-25T11:44:21;17.70;92.90
21246;DHT22;10781;50.928;4.440;2023-04-25T11:46:47;17.60;93.30
21246;DHT22;10781;50.928;4.440;2023-04-25T11:49:14;17.50;91.70
21246;DHT22;10781;50.928;4.440;2023-04-25T11:51:47;18.00;91.60
21246;DHT22;10781;50.928;4.440;2023-04-25T11:54:14;20.20;87.90
21246;DHT22;10781;50.928;4.440;2023-04-25T11:56:44;21.00;84.00
21246;DHT22;10781;50.928;4.440;2023-04-25T11:59:11;21.10;81.90
21246;DHT22;10781;50.928;4.440;2023-04-25T12:01:40;21.10;78.00
21246;DHT22;10781;50.928;4.440;2023-04-25T12:06:41;21.30;75.00
21246;DHT22;10781;50.928;4.440;2023-04-25T12:09:14;19.70;77.90
21246;DHT22;10781;50.928;4.440;2023-04-25T12:11:55;17.80;79.40
21246;DHT22;10781;50.928;4.440;2023-04-25T12:16:50;16.30;79.30
21246;DHT22;10781;50.928;4.440;2023-04-25T12:19:17;16.30;81.10
21246;DHT22;10781;50.928;4.440;2023-04-25T12:21:44;17.10;82.70
21246;DHT22;10781;50.928;4.440;2023-04-25T12:24:15;18.10;79.90
21246;DHT22;10781;50.928;4.440;2023-04-25T12:26:55;18.70;79.80
21246;DHT22;10781;50.928;4.440;2023-04-25T12:29:25;19.00;78.10
21246;DHT22;10781;50.928;4.440;2023-04-25T12:31:52;19.40;75.70
21246;DHT22;10781;50.928;4.440;2023-04-25T12:34:19;19.10;74.70
21246;DHT22;10781;50.928;4.440;2023-04-25T12:36:45;18.80;71.70
21246;DHT22;10781;50.928;4.440;2023-04-25T12:39:22;19.00;70.30
21246;DHT22;10781;50.928;4.440;2023-04-25T12:41:49;18.60;71.90
21246;DHT22;10781;50.928;4.440;2023-04-25T12:44:15;17.70;76.40
21246;DHT22;10781;50.928;4.440;2023-04-25T12:46:41;17.20;78.00
21246;DHT22;10781;50.928;4.440;2023-04-25T12:49:08;16.80;79.50
21246;DHT22;10781;50.928;4.440;2023-04-25T12:51:37;16.60;83.70
21246;DHT22;10781;50.928;4.440;2023-04-25T12:54:04;16.30;85.60
21246;DHT22;10781;50.928;4.440;2023-04-25T12:56:30;15.40;88.00
21246;DHT22;10781;50.928;4.440;2023-04-25T12:58:57;15.10;90.70
21246;DHT22;10781;50.928;4.440;2023-04-25T13:01:23;15.00;91.30
21246;DHT22;10781;50.928;4.440;2023-04-25T13:03:49;15.40;90.90
21246;DHT22;10781;50.928;4.440;2023-04-25T13:06:15;15.70;91.10
21246;DHT22;10781;50.928;4.440;2023-04-25T13:08:41;17.50;89.50
21246;DHT22;10781;50.928;4.440;2023-04-25T13:11:07;17.70;86.20
21246;DHT22;10781;50.928;4.440;2023-04-25T13:13:33;17.60;84.70
21246;DHT22;10781;50.928;4.440;2023-04-25T13:16:03;17.10;84.80
21246;DHT22;10781;50.928;4.440;2023-04-25T13:18:33;17.10;89.10
21246;DHT22;10781;50.928;4.440;2023-04-25T13:20:59;18.10;86.50
21246;DHT22;10781;50.928;4.440;2023-04-25T13:23:28;18.60;82.90
21246;DHT22;10781;50.928;4.440;2023-04-25T13:25:54;20.70;79.10
21246;DHT22;10781;50.928;4.440;2023-04-25T13:28:21;20.10;76.70
21246;DHT22;10781;50.928;4.440;2023-04-25T13:30:47;19.40;79.10
21246;DHT22;10781;50.928;4.440;2023-04-25T13:33:14;19.40;79.60
21246;DHT22;10781;50.928;4.440;2023-04-25T13:35:41;20.10;76.30
21246;DHT22;10781;50.928;4.440;2023-04-25T13:38:07;21.20;75.70
21246;DHT22;10781;50.928;4.440;2023-04-25T13:40:32;20.50;74.70
21246;DHT22;10781;50.928;4.440;2023-04-25T13:42:58;20.20;76.40
21246;DHT22;10781;50.928;4.440;2023-04-25T13:45:24;19.10;81.20
21246;DHT22;10781;50.928;4.440;2023-04-25T13:47:50;18.90;80.60
21246;DHT22;10781;50.928;4.440;2023-04-25T13:50:16;18.30;79.20
21246;DHT22;10781;50.928;4.440;2023-04-25T13:52:42;17.40;81.60
21246;DHT22;10781;50.928;4.440;2023-04-25T13:55:09;17.60;82.80
21246;DHT22;10781;50.928;4.440;2023-04-25T13:57:35;17.10;82.20
21246;DHT22;10781;50.928;4.440;2023-04-25T14:00:03;17.10;84.60
21246;DHT22;10781;50.928;4.440;2023-04-25T14:02:37;17.70;83.90
21246;DHT22;10781;50.928;4.440;2023-04-25T14:05:03;19.50;80.10
21246;DHT22;10781;50.928;4.440;2023-04-25T14:07:29;20.00;71.70
21246;DHT22;10781;50.928;4.440;2023-04-25T14:09:56;21.10;72.00
21246;DHT22;10781;50.928;4.440;2023-04-25T14:12:24;21.40;67.40
21246;DHT22;10781;50.928;4.440;2023-04-25T14:14:50;21.20;69.30
21246;DHT22;10781;50.928;4.440;2023-04-25T14:17:16;21.40;68.90
21246;DHT22;10781;50.928;4.440;2023-04-25T14:19:42;21.70;65.80
21246;DHT22;10781;50.928;4.440;2023-04-25T14:22:11;21.80;65.30
21246;DHT22;10781;50.928;4.440;2023-04-25T14:24:36;21.10;66.20
21246;DHT22;10781;50.928;4.440;2023-04-25T14:27:03;21.50;67.60
21246;DHT22;10781;50.928;4.440;2023-04-25T14:29:29;20.60;69.10
21246;DHT22;10781;50.928;4.440;2023-04-25T14:31:55;19.30;72.20
21246;DHT22;10781;50.928;4.440;2023-04-25T14:34:23;19.20;73.60
21246;DHT22;10781;50.928;4.440;2023-04-25T14:36:48;20.00;71.60
21246;DHT22;10781;50.928;4.440;2023-04-25T14:39:14;20.60;71.40
21246;DHT22;10781;50.928;4.440;2023-04-25T14:41:40;21.40;68.10
21246;DHT22;10781;50.928;4.440;2023-04-25T14:44:05;22.10;66.60
21246;DHT22;10781;50.928;4.440;2023-04-25T14:46:31;21.20;65.40
21246;DHT22;10781;50.928;4.440;2023-04-25T14:48:57;20.70;68.30
21246;DHT22;10781;50.928;4.440;2023-04-25T14:51:23;20.10;68.70
21246;DHT22;10781;50.928;4.440;2023-04-25T14:53:48;19.40;70.00
21246;DHT22;10781;50.928;4.440;2023-04-25T14:56:15;19.60;68.40
21246;DHT22;10781;50.928;4.440;2023-04-25T14:58:41;20.30;70.70
21246;DHT22;10781;50.928;4.440;2023-04-25T15:01:06;20.00;69.50
21246;DHT22;10781;50.928;4.440;2023-04-25T15:03:33;18.60;68.70
21246;DHT22;10781;50.928;4.440;2023-04-25T15:05:59;17.40;72.60
21246;DHT22;10781;50.928;4.440;2023-04-25T15:08:24;18.50;74.80
21246;DHT22;10781;50.928;4.440;2023-04-25T15:10:51;19.60;71.80
21246;DHT22;10781;50.928;4.440;2023-04-25T15:13:18;19.80;71.60
21246;DHT22;10781;50.928;4.440;2023-04-25T15:15:44;19.50;70.70
21246;DHT22;10781;50.928;4.440;2023-04-25T15:18:22;19.40;73.40
21246;DHT22;10781;50.928;4.440;2023-04-25T15:20:52;20.30;69.20
21246;DHT22;10781;50.928;4.440;2023-04-25T15:23:18;20.70;69.70
21246;DHT22;10781;50.928;4.440;2023-04-25T15:25:45;20.00;70.70
21246;DHT22;10781;50.928;4.440;2023-04-25T15:28:10;19.60;70.80
21246;DHT22;10781;50.928;4.440;2023-04-25T15:30:37;19.80;68.80
21246;DHT22;10781;50.928;4.440;2023-04-25T15:33:02;21.20;68.00
21246;DHT22;10781;50.928;4.440;2023-04-25T15:35:28;20.80;68.00
21246;DHT22;10781;50.928;4.440;2023-04-25T15:37:54;20.50;69.00
21246;DHT22;10781;50.928;4.440;2023-04-25T15:40:19;20.80;64.80
21246;DHT22;10781;50.928;4.440;2023-04-25T15:42:47;20.40;66.20
21246;DHT22;10781;50.928;4.440;2023-04-25T15:45:14;20.60;64.00